createdAt,value
2023-02-01T00:13:04.866Z,6.64
2023-02-01T00:27:55.214Z,6.91
2023-02-01T00:42:45.569Z,8.00
2023-02-01T00:57:36.986Z,5.79
2023-02-01T01:12:26.640Z,6.78
2023-02-01T01:27:16.965Z,5.63
2023-02-01T01:42:08.221Z,5.24
2023-02-01T01:57:00.397Z,6.23
2023-02-01T02:11:51.416Z,3.74
2023-02-01T02:27:09.300Z,5.34
2023-02-01T02:42:34.076Z,5.49
2023-02-01T02:57:51.668Z,4.86
2023-02-01T03:12:58.397Z,4.74
2023-02-01T03:27:53.933Z,4.86
2023-02-01T03:42:43.620Z,3.91
2023-02-01T03:57:34.037Z,4.93
2023-02-01T04:12:23.717Z,4.14
2023-02-01T04:27:13.880Z,4.24
2023-02-01T04:42:05.111Z,6.07
2023-02-01T04:56:54.904Z,4.78
2023-02-01T05:12:04.305Z,5.72
2023-02-01T05:26:58.288Z,7.46
2023-02-01T05:41:48.290Z,4.96
2023-02-01T05:56:38.531Z,6.09
2023-02-01T06:11:33.062Z,5.58
2023-02-01T06:26:19.867Z,4.78
2023-02-01T06:41:10.061Z,4.90
2023-02-01T06:56:00.272Z,4.80
2023-02-01T07:10:50.567Z,4.46
2023-02-01T07:25:40.789Z,5.51
2023-02-01T07:40:30.560Z,7.16
2023-02-01T07:55:20.958Z,8.51
2023-02-01T08:10:12.039Z,6.36
2023-02-01T08:25:02.097Z,7.27
2023-02-01T08:39:52.851Z,5.49
2023-02-01T09:11:02.783Z,4.36
2023-02-01T09:25:51.369Z,4.60
2023-02-01T09:40:41.838Z,7.51
2023-02-01T09:55:46.823Z,6.70
2023-02-01T10:10:42.154Z,7.50
2023-02-01T10:25:51.622Z,7.21
2023-02-01T10:40:48.269Z,6.42
2023-02-01T10:55:46.129Z,7.11
2023-02-01T11:10:42.647Z,7.66
2023-02-01T11:25:35.489Z,7.03
2023-02-01T11:40:37.495Z,7.03
2023-02-01T11:55:52.239Z,6.41
2023-02-01T12:10:54.121Z,5.62
2023-02-01T12:26:25.495Z,6.01
2023-02-01T12:41:43.930Z,12.30
2023-02-01T12:56:42.303Z,6.46
2023-02-01T13:11:36.074Z,7.33
2023-02-01T13:26:26.761Z,9.51
2023-02-01T13:41:17.419Z,8.54
2023-02-01T13:56:16.539Z,6.96
2023-02-01T14:11:34.078Z,11.03
2023-02-01T14:26:36.093Z,8.52
2023-02-01T14:41:35.596Z,8.80
2023-02-01T14:56:28.462Z,10.60
2023-02-01T15:11:18.757Z,13.32
2023-02-01T15:26:09.375Z,9.83
2023-02-01T15:41:01.356Z,9.14
2023-02-01T15:55:54.353Z,10.63
2023-02-01T16:10:47.023Z,8.40
2023-02-01T16:25:37.278Z,16.03
2023-02-01T16:40:26.894Z,11.77
2023-02-01T16:55:17.862Z,7.94
2023-02-01T17:10:08.862Z,8.74
2023-02-01T17:24:59.195Z,9.18
2023-02-01T17:39:54.732Z,10.91
2023-02-01T17:54:49.992Z,10.43
2023-02-01T18:09:40.726Z,10.28
2023-02-01T18:24:31.256Z,8.28
2023-02-01T18:39:21.691Z,8.86
2023-02-01T19:09:02.841Z,9.88
2023-02-01T19:23:54.088Z,9.31
2023-02-01T19:53:50.038Z,6.28
2023-02-01T20:08:39.054Z,7.66
2023-02-01T20:23:34.294Z,8.92
2023-02-01T20:38:20.817Z,8.86
2023-02-01T20:53:14.660Z,9.46
2023-02-01T21:08:02.940Z,11.21
2023-02-01T21:22:54.522Z,8.22
2023-02-01T21:37:45.671Z,8.13
2023-02-01T21:52:36.722Z,9.49
2023-02-01T22:07:28.094Z,8.44
2023-02-01T22:22:19.062Z,6.84
2023-02-01T22:37:12.380Z,6.39
2023-02-01T22:52:01.348Z,6.69
2023-02-01T23:06:54.410Z,9.77
2023-02-01T23:21:47.928Z,8.31
2023-02-01T23:36:38.311Z,11.40
2023-02-01T23:51:28.341Z,7.81
